Time;durP1;ratioP1;P1;durP2;ratioP2;P2;SDS_P1;SDS_P2;PMS_P1;PMS_P2;Temp;Humidity;BMP_temperature;BMP_pressure;BME280_temperature;BME280_humidity;BME280_pressure;Samples;Min_cycle;Max_cycle;Signal;HPM_P1;HPM_P2
2022/12/04 00:02:11;;;;;;;52.08;19.75;;;;;;;-0.21;100.00;101827.94;5070999;28;20024;-68
2022/12/04 00:04:37;;;;;;;56.03;20.52;;;;;;;-0.17;100.00;101823.91;5070997;28;20125;-69
2022/12/04 00:07:02;;;;;;;51.47;20.15;;;;;;;-0.15;100.00;101821.44;5070033;28;20167;-69
2022/12/04 00:09:27;;;;;;;56.80;21.10;;;;;;;-0.14;100.00;101812.88;5069022;28;20165;-68
2022/12/04 00:11:53;;;;;;;53.83;21.00;;;;;;;-0.17;100.00;101814.44;5064505;28;20111;-68
2022/12/04 00:14:18;;;;;;;48.75;19.50;;;;;;;-0.12;100.00;101811.28;5065973;28;20028;-67
2022/12/04 00:16:43;;;;;;;46.80;20.50;;;;;;;-0.14;100.00;101813.78;5067899;28;20024;-69
2022/12/04 00:19:09;;;;;;;51.08;20.90;;;;;;;-0.19;100.00;101809.94;5075867;28;20073;-69
2022/12/04 00:21:34;;;;;;;60.55;21.50;;;;;;;-0.15;100.00;101809.38;5075976;28;20102;-67
2022/12/04 00:24:00;;;;;;;53.80;20.65;;;;;;;-0.16;100.00;101807.59;5068925;28;20032;-67
2022/12/04 00:26:27;;;;;;;53.53;21.75;;;;;;;-0.17;100.00;101809.25;5069129;28;20024;-68
2022/12/04 00:28:52;;;;;;;57.10;20.40;;;;;;;-0.19;100.00;101800.50;5070186;28;20095;-67
2022/12/04 00:31:21;;;;;;;52.50;21.00;;;;;;;-0.20;100.00;101803.88;5062697;28;20491;-68
2022/12/04 00:33:46;;;;;;;58.03;20.88;;;;;;;-0.25;100.00;101805.19;5069533;28;20025;-68
2022/12/04 00:36:15;;;;;;;49.92;18.48;;;;;;;-0.21;100.00;101798.59;5072123;28;20475;-70
2022/12/04 00:38:41;;;;;;;52.15;21.02;;;;;;;-0.19;100.00;101804.75;5074068;28;21866;-68
2022/12/04 00:41:15;;;;;;;50.47;19.05;;;;;;;-0.22;100.00;101810.63;5071463;28;20749;-68
2022/12/04 00:43:41;;;;;;;54.47;19.73;;;;;;;-0.24;100.00;101811.28;5071156;28;20191;-70
2022/12/04 00:46:08;;;;;;;55.20;20.05;;;;;;;-0.21;100.00;101811.53;5070919;28;20535;-69
2022/12/04 00:48:33;;;;;;;44.50;21.00;;;;;;;-0.17;100.00;101811.84;5067875;28;20546;-68
2022/12/04 00:51:07;;;;;;;47.72;20.48;;;;;;;-0.22;100.00;101805.47;5062272;28;20028;-69
2022/12/04 00:53:32;;;;;;;58.47;22.17;;;;;;;-0.22;100.00;101799.38;5063111;28;20113;-69
2022/12/04 00:55:57;;;;;;;49.47;20.30;;;;;;;-0.23;100.00;101797.56;5071174;28;20054;-69
2022/12/04 00:58:23;;;;;;;58.90;21.65;;;;;;;-0.23;100.00;101800.16;5068879;28;20477;-68
2022/12/04 01:00:48;;;;;;;56.67;22.65;;;;;;;-0.22;100.00;101794.19;5065800;28;20025;-68
2022/12/04 01:03:13;;;;;;;55.78;22.75;;;;;;;-0.26;100.00;101797.34;5057285;28;20033;-69
2022/12/04 01:05:41;;;;;;;55.10;21.60;;;;;;;-0.23;100.00;101798.47;5073843;28;20070;-68
2022/12/04 01:08:09;;;;;;;53.10;21.50;;;;;;;-0.24;100.00;101800.94;5065504;28;20075;-68
2022/12/04 01:10:40;;;;;;;58.03;21.02;;;;;;;-0.20;100.00;101800.41;5084034;28;20767;-68
2022/12/04 01:13:05;;;;;;;56.00;21.48;;;;;;;-0.21;100.00;101798.59;5070127;28;20028;-68
2022/12/04 01:15:30;;;;;;;53.78;20.45;;;;;;;-0.26;100.00;101800.84;5081150;28;20028;-67
2022/12/04 01:17:56;;;;;;;56.75;21.48;;;;;;;-0.19;100.00;101795.34;5071643;28;20476;-69
2022/12/04 01:20:21;;;;;;;43.78;19.90;;;;;;;-0.20;100.00;101797.81;5065794;28;20028;-68
2022/12/04 01:22:46;;;;;;;58.08;21.08;;;;;;;-0.23;100.00;101807.91;5060208;28;20095;-69
2022/12/04 01:25:12;;;;;;;65.45;23.85;;;;;;;-0.18;100.00;101806.56;5084988;28;20106;-68
2022/12/04 01:27:37;;;;;;;59.00;21.80;;;;;;;-0.17;100.00;101804.09;5079667;28;20039;-69
2022/12/04 01:30:03;;;;;;;60.67;23.33;;;;;;;-0.19;100.00;101799.59;5072647;28;20033;-69
2022/12/04 01:32:28;;;;;;;55.63;22.98;;;;;;;-0.23;100.00;101802.72;5075425;28;20548;-70
2022/12/04 01:34:53;;;;;;;56.90;22.38;;;;;;;-0.19;100.00;101797.00;5065298;28;20024;-68
2022/12/04 01:37:19;;;;;;;58.20;23.80;;;;;;;-0.19;100.00;101789.25;5068737;28;20036;-69
2022/12/04 01:39:44;;;;;;;62.28;23.60;;;;;;;-0.19;100.00;101794.41;5068352;28;20073;-68
2022/12/04 01:42:14;;;;;;;55.78;21.60;;;;;;;-0.20;100.00;101793.53;5073476;28;20495;-67
2022/12/04 01:44:43;;;;;;;56.42;22.05;;;;;;;-0.21;100.00;101790.81;5073541;28;20029;-69
2022/12/04 01:47:09;;;;;;;59.33;21.75;;;;;;;-0.20;100.00;101790.94;5072707;28;20097;-69
2022/12/04 01:49:46;;;;;;;57.42;21.38;;;;;;;-0.20;100.00;101787.47;5061466;28;20107;-68
2022/12/04 01:52:21;;;;;;;55.72;23.17;;;;;;;-0.19;100.00;101786.66;5065805;28;20033;-69
2022/12/04 01:54:52;;;;;;;60.15;22.65;;;;;;;-0.19;100.00;101789.25;5063062;28;20036;-68
2022/12/04 01:57:21;;;;;;;65.60;23.48;;;;;;;-0.19;100.00;101799.59;5070305;28;20044;-68
2022/12/04 01:59:49;;;;;;;63.92;22.58;;;;;;;-0.15;100.00;101801.63;5076259;28;20035;-70
2022/12/04 02:02:19;;;;;;;56.55;22.98;;;;;;;-0.17;100.00;101792.84;5063086;28;20024;-67
2022/12/04 02:04:45;;;;;;;52.40;21.48;;;;;;;-0.15;100.00;101796.44;5067852;28;20384;-68
2022/12/04 02:07:11;;;;;;;59.67;22.33;;;;;;;-0.17;100.00;101798.91;5067601;28;20024;-68
2022/12/04 02:09:40;;;;;;;59.13;23.15;;;;;;;-0.18;100.00;101804.91;5069483;28;20023;-68
2022/12/04 02:12:22;;;;;;;61.67;24.00;;;;;;;-0.18;100.00;101806.56;5072843;28;20067;-68
2022/12/04 02:15:03;;;;;;;67.40;23.50;;;;;;;-0.14;100.00;101803.44;5070587;28;20522;-69
2022/12/04 02:17:41;;;;;;;51.13;21.27;;;;;;;-0.15;100.00;101799.03;5068511;28;20150;-68
2022/12/04 02:20:30;;;;;;;58.85;21.83;;;;;;;-0.16;100.00;101802.44;5059701;28;20033;-68
2022/12/04 02:23:18;;;;;;;64.97;22.77;;;;;;;-0.16;100.00;101794.66;5071981;28;20032;-70
2022/12/04 02:26:02;;;;;;;58.85;21.52;;;;;;;-0.15;100.00;101796.44;5072475;28;20483;-68
2022/12/04 02:28:37;;;;;;;67.30;23.20;;;;;;;-0.13;100.00;101792.31;5070648;28;20533;-71
2022/12/04 02:31:11;;;;;;;64.00;23.23;;;;;;;-0.11;100.00;101785.56;5062303;28;20041;-69
2022/12/04 02:33:43;;;;;;;54.80;22.48;;;;;;;-0.12;100.00;101790.59;5073366;28;20135;-69
2022/12/04 02:36:14;;;;;;;57.78;23.70;;;;;;;-0.15;100.00;101787.78;5060737;28;20070;-68
2022/12/04 02:38:46;;;;;;;56.88;21.77;;;;;;;-0.15;100.00;101780.03;5067296;28;20021;-70
2022/12/04 02:41:23;;;;;;;56.38;21.52;;;;;;;-0.15;100.00;101788.69;5061275;28;20080;-68
2022/12/04 02:43:53;;;;;;;66.85;22.88;;;;;;;-0.13;100.00;101779.38;5063499;28;20576;-68
2022/12/04 02:46:27;;;;;;;60.60;20.70;;;;;;;-0.07;100.00;101782.44;5068989;28;20074;-68
2022/12/04 02:48:54;;;;;;;;;;;;;;;-0.06;100.00;101776.44;5063025;28;20048;-68
2022/12/04 02:51:24;;;;;;;53.65;20.45;;;;;;;-0.08;100.00;101775.44;5062786;28;19958;-68
2022/12/04 02:53:55;;;;;;;60.20;22.65;;;;;;;-0.05;100.00;101770.50;5070008;28;20414;-69
2022/12/04 02:56:35;;;;;;;56.85;21.55;;;;;;;-0.07;100.00;101772.09;5072873;28;20081;-67
2022/12/04 02:59:28;;;;;;;55.10;21.75;;;;;;;-0.11;100.00;101767.47;5061063;28;20052;-68
2022/12/04 03:01:57;;;;;;;62.53;21.60;;;;;;;-0.11;100.00;101767.47;5066586;28;20104;-69
2022/12/04 03:04:26;;;;;;;62.58;23.92;;;;;;;-0.11;100.00;101766.53;5069346;28;20396;-68
2022/12/04 03:06:59;;;;;;;59.83;24.27;;;;;;;-0.11;100.00;101761.38;5071124;28;20587;-68
2022/12/04 03:09:44;;;;;;;63.92;23.50;;;;;;;-0.12;100.00;101759.56;5069212;28;20036;-68
2022/12/04 03:12:17;;;;;;;55.53;22.40;;;;;;;-0.10;100.00;101752.81;5060670;28;20033;-66
2022/12/04 03:14:51;;;;;;;61.70;22.85;;;;;;;-0.09;100.00;101749.47;5056759;28;20137;-67
2022/12/04 03:17:28;;;;;;;62.55;22.70;;;;;;;-0.12;100.00;101757.91;5070780;28;20116;-68
2022/12/04 03:20:00;;;;;;;60.85;24.73;;;;;;;-0.12;100.00;101763.06;5058994;28;20081;-68
2022/12/04 03:22:28;;;;;;;65.65;22.80;;;;;;;-0.08;100.00;101767.69;5069557;28;20031;-69
2022/12/04 03:24:55;;;;;;;60.60;24.35;;;;;;;-0.11;100.00;101761.38;5063405;28;20024;-69
2022/12/04 03:27:43;;;;;;;58.85;24.30;;;;;;;-0.10;100.00;101758.00;5064878;28;20025;-68
2022/12/04 03:30:16;;;;;;;65.15;23.65;;;;;;;-0.15;100.00;101765.41;5054628;28;20101;-69
2022/12/04 03:32:45;;;;;;;60.75;23.08;;;;;;;-0.10;100.00;101753.72;5058023;28;20082;-68
2022/12/04 03:35:14;;;;;;;70.85;23.02;;;;;;;-0.09;100.00;101752.94;5071038;28;20024;-69
2022/12/04 03:37:59;;;;;;;59.47;22.02;;;;;;;-0.06;100.00;101760.91;5071691;28;20171;-68
2022/12/04 03:40:54;;;;;;;68.63;23.70;;;;;;;-0.09;100.00;101762.41;5076695;28;20031;-69
2022/12/04 03:43:48;;;;;;;58.97;23.15;;;;;;;-0.11;100.00;101751.03;5067875;28;20032;-69
2022/12/04 03:46:23;;;;;;;55.33;22.73;;;;;;;-0.09;100.00;101750.34;5063015;28;20032;-70
2022/12/04 03:49:28;;;;;;;64.57;24.63;;;;;;;-0.06;100.00;101744.50;5057345;28;20051;-69
2022/12/04 03:52:06;;;;;;;58.75;24.45;;;;;;;-0.06;100.00;101740.22;5070437;28;20034;-68
2022/12/04 03:54:36;;;;;;;63.70;24.40;;;;;;;-0.11;100.00;101744.19;5062325;28;20074;-69
2022/12/04 03:57:09;;;;;;;59.47;24.13;;;;;;;-0.12;100.00;101737.19;5069531;28;20029;-68
2022/12/04 03:59:54;;;;;;;59.38;23.13;;;;;;;-0.12;100.00;101744.97;5068441;28;20032;-69
2022/12/04 04:02:23;;;;;;;67.78;24.95;;;;;;;-0.04;100.00;101728.31;5065994;28;20028;-68
2022/12/04 04:04:51;;;;;;;65.85;24.20;;;;;;;-0.04;100.00;101737.75;5065621;28;20028;-68
2022/12/04 04:07:27;;;;;;;65.07;25.25;;;;;;;-0.08;100.00;101731.47;5058119;28;20028;-69
2022/12/04 04:09:59;;;;;;;64.45;22.90;;;;;;;-0.08;100.00;101734.06;5067315;28;20471;-68
2022/12/04 04:12:30;;;;;;;63.00;23.45;;;;;;;-0.14;100.00;101728.41;5071105;28;20099;-69
2022/12/04 04:26:14;;;;;;;62.22;23.65;;;;;;;-0.12;100.00;101725.94;5069355;28;20044;-68
2022/12/04 04:28:41;;;;;;;59.17;22.52;;;;;;;-0.11;100.00;101725.16;5064218;28;20029;-68
2022/12/04 04:31:40;;;;;;;56.83;22.05;;;;;;;-0.12;100.00;101719.09;5069822;28;20028;-69
2022/12/04 04:34:21;;;;;;;61.92;22.52;;;;;;;-0.11;100.00;101733.84;5067667;28;20040;-67
2022/12/04 04:37:01;;;;;;;64.95;25.25;;;;;;;-0.11;100.00;101731.25;5052096;28;20025;-67
2022/12/04 04:39:52;;;;;;;62.05;23.42;;;;;;;-0.11;100.00;101733.84;5060385;28;20094;-68
2022/12/04 04:42:29;;;;;;;60.85;23.05;;;;;;;-0.12;100.00;101729.44;5068553;28;20132;-68
2022/12/04 04:44:54;;;;;;;64.65;25.15;;;;;;;-0.13;100.00;101727.63;5066569;28;20480;-68
2022/12/04 04:47:45;;;;;;;61.42;23.02;;;;;;;-0.06;100.00;101735.03;5064698;28;20035;-70
2022/12/04 04:50:12;;;;;;;58.15;24.30;;;;;;;-0.04;100.00;101743.84;5039173;28;20040;-67
2022/12/04 04:52:41;;;;;;;62.08;24.48;;;;;;;-0.05;100.00;101741.16;5071237;28;20129;-68
2022/12/04 04:55:08;;;;;;;56.10;23.00;;;;;;;-0.07;100.00;101743.63;5068992;28;20078;-69
2022/12/04 04:57:35;;;;;;;63.35;23.52;;;;;;;-0.09;100.00;101747.75;5059686;28;20138;-69
2022/12/04 05:00:06;;;;;;;60.50;24.17;;;;;;;-0.07;100.00;101747.88;5065710;28;20162;-69
2022/12/04 05:02:32;;;;;;;65.05;25.30;;;;;;;-0.07;100.00;101747.88;5055874;28;20108;-68
2022/12/04 05:04:57;;;;;;;56.70;23.30;;;;;;;-0.05;100.00;101742.03;5071629;28;20362;-69
2022/12/04 05:07:23;;;;;;;65.78;25.95;;;;;;;-0.01;100.00;101740.59;5068924;28;20046;-69
2022/12/04 05:09:48;;;;;;;62.33;24.45;;;;;;;-0.07;100.00;101748.78;5069935;28;20063;-68
2022/12/04 05:12:13;;;;;;;66.00;25.23;;;;;;;-0.08;100.00;101747.00;5063266;28;20028;-69
2022/12/04 05:14:39;;;;;;;61.45;24.10;;;;;;;-0.06;100.00;101742.81;5060325;28;20028;-69
2022/12/04 05:17:05;;;;;;;55.08;22.80;;;;;;;-0.07;100.00;101738.44;5067989;28;20036;-68
2022/12/04 05:19:52;;;;;;;65.10;24.98;;;;;;;-0.06;100.00;101749.69;5062793;28;20117;-68
2022/12/04 05:22:34;;;;;;;60.35;23.23;;;;;;;-0.08;100.00;101748.66;5052923;28;20460;-69
2022/12/04 05:25:00;;;;;;;60.75;23.85;;;;;;;-0.09;100.00;101744.28;5070614;28;20068;-68
2022/12/04 05:27:28;;;;;;;72.65;25.38;;;;;;;-0.07;100.00;101753.03;5060697;28;20029;-67
2022/12/04 05:29:54;;;;;;;66.15;25.13;;;;;;;-0.07;100.00;101753.97;5056313;28;20037;-67
2022/12/04 05:32:21;;;;;;;61.03;24.17;;;;;;;-0.11;100.00;101757.13;5058144;28;20032;-69
2022/12/04 05:34:48;;;;;;;66.30;24.45;;;;;;;-0.09;100.00;101759.81;5052444;28;20053;-68
2022/12/04 05:37:13;;;;;;;64.03;25.15;;;;;;;-0.09;100.00;101765.88;5060386;28;20032;-71
2022/12/04 05:39:39;;;;;;;65.15;25.33;;;;;;;-0.06;100.00;101760.03;5072744;28;20033;-68
2022/12/04 05:42:04;;;;;;;64.07;26.08;;;;;;;-0.07;100.00;101759.16;5069911;28;20036;-68
2022/12/04 05:44:30;;;;;;;60.08;23.50;;;;;;;-0.05;100.00;101752.38;5063495;28;20159;-68
2022/12/04 05:46:55;;;;;;;65.47;25.83;;;;;;;-0.04;100.00;101758.44;5065099;28;20036;-69
2022/12/04 05:49:20;;;;;;;65.45;23.48;;;;;;;-0.08;100.00;101757.34;5067716;28;20052;-68
2022/12/04 05:51:46;;;;;;;62.92;23.80;;;;;;;-0.08;100.00;101762.50;5062705;28;20020;-69
2022/12/04 05:54:11;;;;;;;62.85;25.60;;;;;;;-0.09;100.00;101760.69;5065445;28;20472;-67
2022/12/04 05:56:36;;;;;;;57.70;24.08;;;;;;;-0.10;100.00;101753.72;5064379;28;20035;-70
2022/12/04 05:59:02;;;;;;;61.22;24.83;;;;;;;-0.08;100.00;101746.06;5061503;28;20132;-68
2022/12/04 06:01:27;;;;;;;69.70;26.27;;;;;;;-0.09;100.00;101754.63;5062122;28;20044;-69
2022/12/04 06:03:53;;;;;;;61.13;24.08;;;;;;;-0.08;100.00;101754.75;5062732;28;20473;-68
2022/12/04 06:06:21;;;;;;;68.20;25.70;;;;;;;-0.10;100.00;101758.00;5064416;28;20373;-67
2022/12/04 06:08:47;;;;;;;72.00;28.38;;;;;;;-0.11;100.00;101759.69;5066464;28;20021;-69
2022/12/04 06:11:22;;;;;;;66.18;25.35;;;;;;;-0.11;100.00;101762.28;5075663;28;20031;-69
2022/12/04 06:13:47;;;;;;;60.05;23.85;;;;;;;-0.07;100.00;101760.81;5066418;28;21266;-68
2022/12/04 06:16:27;;;;;;;54.70;24.35;;;;;;;-0.09;100.00;101755.53;5068107;28;20391;-69
2022/12/04 06:18:55;;;;;;;68.53;26.05;;;;;;;-0.10;100.00;101758.91;5074048;28;20363;-68
2022/12/04 06:21:22;;;;;;;66.97;26.63;;;;;;;-0.12;100.00;101756.97;5071067;28;20037;-69
2022/12/04 06:23:48;;;;;;;61.03;25.70;;;;;;;-0.10;100.00;101756.31;5080608;28;20454;-68
2022/12/04 06:26:14;;;;;;;57.92;24.13;;;;;;;-0.09;100.00;101755.53;5061667;28;20307;-71
2022/12/04 06:28:39;;;;;;;64.10;24.50;;;;;;;-0.09;100.00;101763.28;5057826;28;20422;-70
2022/12/04 06:31:08;;;;;;;55.28;24.00;;;;;;;-0.08;100.00;101757.34;5058507;28;20032;-69
2022/12/04 06:33:33;;;;;;;65.60;25.65;;;;;;;-0.08;100.00;101757.34;5065537;28;20032;-69
2022/12/04 06:36:01;;;;;;;70.32;26.30;;;;;;;-0.09;100.00;101755.53;5076419;28;20032;-69
2022/12/04 06:38:27;;;;;;;58.90;23.27;;;;;;;-0.05;100.00;101754.97;5072326;28;20021;-69
2022/12/04 06:40:52;;;;;;;72.68;25.45;;;;;;;-0.02;100.00;101750.00;5066180;28;20028;-68
2022/12/04 06:43:18;;;;;;;65.20;25.95;;;;;;;-0.03;100.00;101756.00;5066209;28;20033;-68
2022/12/04 06:45:43;;;;;;;66.80;25.63;;;;;;;-0.06;100.00;101755.75;5066533;28;20369;-67
2022/12/04 06:48:09;;;;;;;59.67;25.55;;;;;;;-0.07;100.00;101751.38;5059702;28;20107;-69
2022/12/04 06:50:34;;;;;;;68.13;26.08;;;;;;;-0.01;100.00;101749.22;5060797;28;20380;-67
2022/12/04 06:52:59;;;;;;;66.25;26.45;;;;;;;-0.03;100.00;101755.06;5059070;28;20066;-68
2022/12/04 06:55:25;;;;;;;68.63;26.48;;;;;;;-0.05;100.00;101752.38;5057539;28;20029;-67
2022/12/04 06:57:50;;;;;;;65.10;25.05;;;;;;;-0.05;100.00;101752.38;5064419;28;20124;-67
2022/12/04 07:00:16;;;;;;;57.25;24.00;;;;;;;-0.03;100.00;101744.72;5065912;28;20115;-68
2022/12/04 07:02:41;;;;;;;65.32;25.80;;;;;;;-0.05;100.00;101751.50;5059757;28;20151;-68
2022/12/04 07:05:06;;;;;;;68.60;26.17;;;;;;;-0.07;100.00;101743.63;5059580;28;20027;-68
2022/12/04 07:07:32;;;;;;;60.05;23.42;;;;;;;-0.04;100.00;101749.00;5064393;28;20036;-68
2022/12/04 07:09:57;;;;;;;64.53;25.73;;;;;;;-0.04;100.00;101740.34;5068609;28;20020;-68
2022/12/04 07:12:23;;;;;;;66.60;24.02;;;;;;;0.01;100.00;101745.88;5062333;28;20107;-67
2022/12/04 07:14:48;;;;;;;65.53;25.55;;;;;;;-0.03;100.00;101745.66;5064428;28;20020;-68
2022/12/04 07:17:13;;;;;;;55.70;24.33;;;;;;;-0.05;100.00;101749.78;5063911;28;20016;-71
2022/12/04 07:19:38;;;;;;;56.40;24.60;;;;;;;-0.01;100.00;101749.22;5064892;28;20784;-68
2022/12/04 07:22:05;;;;;;;61.53;23.55;;;;;;;-0.01;100.00;101748.34;5076536;28;20031;-68
2022/12/04 07:24:30;;;;;;;64.10;25.02;;;;;;;-0.01;100.00;101749.22;5062748;28;20034;-71
2022/12/04 07:26:55;;;;;;;71.93;25.92;;;;;;;-0.03;100.00;101755.06;5067548;28;20132;-70
2022/12/04 07:29:21;;;;;;;66.53;24.48;;;;;;;-0.05;100.00;101752.38;5082091;28;20020;-68
2022/12/04 07:31:46;;;;;;;69.10;26.23;;;;;;;-0.02;100.00;101750.00;5070804;28;20029;-69
2022/12/04 07:34:11;;;;;;;64.13;23.95;;;;;;;-0.01;100.00;101758.69;5067450;28;20383;-70
2022/12/04 07:36:39;;;;;;;60.95;25.30;;;;;;;-0.08;100.00;101757.34;5067577;28;20031;-69
2022/12/04 07:39:04;;;;;;;69.63;26.92;;;;;;;-0.08;100.00;101754.75;5069529;28;20051;-68
2022/12/04 07:41:29;;;;;;;60.15;23.38;;;;;;;-0.03;100.00;101750.81;5053773;28;20380;-68
2022/12/04 07:43:55;;;;;;;63.15;25.70;;;;;;;-0.03;100.00;101756.00;5072763;28;20444;-68
2022/12/04 07:46:23;;;;;;;63.80;23.77;;;;;;;-0.04;100.00;101751.59;5067443;28;20032;-68
2022/12/04 07:48:48;;;;;;;55.53;23.55;;;;;;;-0.03;100.00;101762.84;5060755;28;20103;-70
2022/12/04 07:51:20;;;;;;;68.93;25.10;;;;;;;-0.03;100.00;101750.81;5076138;28;20524;-70
2022/12/04 07:53:46;;;;;;;61.85;24.23;;;;;;;-0.02;100.00;101765.53;5061050;28;20040;-69
2022/12/04 07:56:13;;;;;;;61.47;22.65;;;;;;;0.01;100.00;101769.16;5067152;28;20063;-68
2022/12/04 07:58:39;;;;;;;64.60;25.08;;;;;;;-0.01;100.00;101772.50;5056285;28;20048;-69
2022/12/04 08:01:05;;;;;;;64.40;25.65;;;;;;;0.02;100.00;101768.38;5060046;28;20115;-69
2022/12/04 08:03:30;;;;;;;60.15;24.27;;;;;;;0.06;100.00;101775.56;5063176;28;20054;-68
2022/12/04 08:05:59;;;;;;;65.22;23.85;;;;;;;-0.01;100.00;101769.94;5069165;28;20031;-68
2022/12/04 08:08:25;;;;;;;65.72;25.25;;;;;;;-0.02;100.00;101770.72;5057632;28;20020;-68
2022/12/04 08:10:50;;;;;;;64.72;24.05;;;;;;;0.01;100.00;101771.75;5057278;28;20020;-70
2022/12/04 08:13:15;;;;;;;60.60;23.55;;;;;;;0.05;100.00;101778.94;5083162;28;20017;-68
2022/12/04 08:15:41;;;;;;;59.63;23.38;;;;;;;0.04;100.00;101787.47;5062596;28;20020;-68
2022/12/04 08:18:06;;;;;;;61.40;23.70;;;;;;;0.03;100.00;101790.84;5062615;28;20031;-69
2022/12/04 08:20:31;;;;;;;58.85;23.65;;;;;;;0.05;100.00;101779.81;5064352;28;20095;-68
2022/12/04 08:22:56;;;;;;;58.40;23.13;;;;;;;0.04;100.00;101788.41;5067954;28;20654;-68
2022/12/04 08:25:22;;;;;;;65.93;24.33;;;;;;;0.05;100.00;101789.28;5065331;28;20496;-68
2022/12/04 08:27:47;;;;;;;57.50;22.05;;;;;;;0.07;100.00;101792.88;5073358;28;20040;-68
2022/12/04 08:30:13;;;;;;;55.75;23.55;;;;;;;0.09;100.00;101791.31;5063130;28;20041;-68
2022/12/04 08:32:38;;;;;;;54.67;21.63;;;;;;;0.14;100.00;101789.97;5057060;28;20031;-68
2022/12/04 08:35:04;;;;;;;58.78;22.85;;;;;;;0.15;100.00;101792.69;5065201;28;20037;-68
2022/12/04 08:37:29;;;;;;;57.13;23.95;;;;;;;0.15;100.00;101792.69;5070649;28;20031;-68
2022/12/04 08:39:54;;;;;;;58.47;23.85;;;;;;;0.12;100.00;101794.13;5070703;28;20031;-68
2022/12/04 08:42:20;;;;;;;61.53;22.77;;;;;;;0.16;100.00;101798.75;5059941;28;20043;-68
2022/12/04 08:44:45;;;;;;;58.70;23.05;;;;;;;0.13;100.00;101794.22;5062154;28;20464;-69
2022/12/04 08:47:10;;;;;;;63.80;23.88;;;;;;;0.13;100.00;101795.94;5067532;28;20105;-69
2022/12/04 08:49:36;;;;;;;61.50;24.10;;;;;;;0.15;100.00;101805.63;5064391;28;20021;-67
2022/12/04 08:52:01;;;;;;;64.20;22.70;;;;;;;0.19;100.00;101809.34;5077435;28;20028;-67
2022/12/04 08:54:26;;;;;;;52.60;23.10;;;;;;;0.22;100.00;101806.97;5071686;28;20016;-70
2022/12/04 08:56:51;;;;;;;58.53;23.85;;;;;;;0.21;100.00;101807.75;5055310;28;20203;-68
2022/12/04 08:59:17;;;;;;;59.95;22.55;;;;;;;0.22;100.00;101813.81;5050275;28;20032;-66
2022/12/04 09:01:42;;;;;;;60.60;25.13;;;;;;;0.25;100.00;101814.97;5055653;28;20444;-68
2022/12/04 09:04:07;;;;;;;65.68;24.88;;;;;;;0.27;100.00;101818.56;5067192;28;20480;-67
2022/12/04 09:06:33;;;;;;;53.00;23.02;;;;;;;0.28;100.00;101811.69;5068406;28;20040;-69
2022/12/04 09:08:58;;;;;;;58.90;23.33;;;;;;;0.28;100.00;101817.75;5066610;28;20048;-68
2022/12/04 09:11:27;;;;;;;55.95;23.23;;;;;;;0.29;100.00;101816.97;5064865;28;20111;-69
2022/12/04 09:13:52;;;;;;;63.22;23.23;;;;;;;0.40;100.00;101817.78;5057402;28;20078;-68
2022/12/04 09:16:20;;;;;;;50.75;23.30;;;;;;;0.36;100.00;101823.50;5065165;28;20424;-68
2022/12/04 09:18:46;;;;;;;68.95;25.40;;;;;;;0.28;100.00;101825.53;5069048;28;20025;-69
2022/12/04 09:21:14;;;;;;;65.00;23.92;;;;;;;0.28;100.00;101824.63;5068025;28;20039;-68
2022/12/04 09:23:40;;;;;;;61.95;24.45;;;;;;;0.26;100.00;101819.34;5062179;28;20020;-69
2022/12/04 09:26:20;;;;;;;61.47;23.65;;;;;;;0.28;100.00;101812.59;5068441;28;20097;-68
2022/12/04 09:28:46;;;;;;;59.28;23.40;;;;;;;0.32;100.00;101816.31;5064511;28;20013;-68
2022/12/04 09:31:11;;;;;;;60.92;25.15;;;;;;;0.29;100.00;101804.03;5070799;28;20351;-68
2022/12/04 09:33:36;;;;;;;66.15;26.15;;;;;;;0.31;100.00;101814.50;5064954;28;20027;-68
2022/12/04 09:36:02;;;;;;;62.85;26.02;;;;;;;0.26;100.00;101816.75;5064219;28;20039;-68
2022/12/04 09:38:29;;;;;;;60.55;25.15;;;;;;;0.31;100.00;101822.28;5064943;28;20440;-67
2022/12/04 09:41:04;;;;;;;60.65;23.67;;;;;;;0.31;100.00;101819.69;5066476;28;20020;-69
2022/12/04 09:43:47;;;;;;;61.42;24.67;;;;;;;0.35;100.00;101813.03;5070150;28;20540;-69
2022/12/04 09:46:44;;;;;;;62.80;24.05;;;;;;;0.44;100.00;101824.09;5063373;28;20123;-69
2022/12/04 09:49:23;;;;;;;61.58;24.45;;;;;;;0.43;100.00;101810.22;5061882;28;20040;-67
2022/12/04 09:51:50;;;;;;;64.07;23.55;;;;;;;0.40;100.00;101809.13;5067478;28;20451;-68
2022/12/04 09:54:21;;;;;;;57.40;22.77;;;;;;;0.46;100.00;101812.13;5064332;28;20028;-67
2022/12/04 09:56:58;;;;;;;60.90;24.35;;;;;;;0.45;100.00;101815.53;5071401;28;20047;-68
2022/12/04 09:59:25;;;;;;;58.40;23.60;;;;;;;0.48;100.00;101807.97;5070456;28;20047;-67
2022/12/04 10:02:01;;;;;;;60.63;23.05;;;;;;;0.47;100.00;101821.72;5065324;28;20024;-71
2022/12/04 10:04:26;;;;;;;62.33;22.17;;;;;;;0.46;100.00;101814.72;5063739;28;20036;-69
2022/12/04 10:07:02;;;;;;;63.03;24.55;;;;;;;0.46;100.00;101814.72;5070012;28;20027;-68
2022/12/04 10:09:54;;;;;;;60.08;23.95;;;;;;;0.46;100.00;101815.66;5072532;28;20115;-68
2022/12/04 10:12:35;;;;;;;52.90;21.63;;;;;;;0.48;100.00;101807.97;5060981;28;20024;-69
2022/12/04 10:15:10;;;;;;;59.25;22.92;;;;;;;0.53;100.00;101811.81;5059310;28;20074;-70
2022/12/04 10:17:36;;;;;;;55.50;24.65;;;;;;;0.56;100.00;101812.03;5080730;28;20031;-67
2022/12/04 10:20:41;;;;;;;62.15;23.63;;;;;;;0.53;100.00;101808.31;5067445;28;20489;-69
2022/12/04 10:23:07;;;;;;;58.80;24.02;;;;;;;0.50;100.00;101816.75;5064007;28;20037;-68
2022/12/04 10:25:37;;;;;;;61.78;23.90;;;;;;;0.51;100.00;101818.56;5073884;28;20039;-69
2022/12/04 10:28:13;;;;;;;54.75;22.85;;;;;;;0.54;100.00;101813.59;5063788;28;20028;-68
2022/12/04 10:30:41;;;;;;;54.42;22.42;;;;;;;0.55;100.00;101811.91;5065049;28;20050;-68
2022/12/04 10:33:18;;;;;;;49.85;21.73;;;;;;;0.59;100.00;101811.34;5071082;28;20467;-68
2022/12/04 10:35:47;;;;;;;59.90;22.65;;;;;;;0.62;100.00;101806.38;5064422;28;20093;-68
2022/12/04 10:38:27;;;;;;;55.95;23.05;;;;;;;0.58;100.00;101794.91;5069002;28;20120;-69
2022/12/04 10:41:01;;;;;;;59.83;22.10;;;;;;;0.59;100.00;101801.88;5073659;28;20068;-69
2022/12/04 10:43:43;;;;;;;;;;;;;;;0.62;100.00;101802.09;5062589;28;20021;-69
2022/12/04 10:46:13;;;;;;;49.67;21.77;;;;;;;0.63;100.00;101796.13;5080304;28;20325;-68
2022/12/04 10:48:40;;;;;;;53.92;22.17;;;;;;;0.62;100.00;101796.91;5066300;28;20400;-68
2022/12/04 10:51:13;;;;;;;60.35;21.45;;;;;;;0.61;100.00;101789.97;5060593;28;20056;-70
2022/12/04 10:53:39;;;;;;;59.07;22.03;;;;;;;0.68;100.00;101801.66;5063370;28;20540;-70
2022/12/04 10:56:11;;;;;;;56.38;22.70;;;;;;;0.72;100.00;101787.22;5071123;28;20293;-70
2022/12/04 10:58:37;;;;;;;53.97;22.27;;;;;;;0.73;100.00;101786.44;5072409;28;20040;-70
2022/12/04 11:01:07;;;;;;;54.35;21.70;;;;;;;0.79;100.00;101784.31;5070159;28;20032;-71
2022/12/04 11:03:33;;;;;;;54.30;21.30;;;;;;;0.78;100.00;101788.56;5064781;28;20526;-71
2022/12/04 11:06:07;;;;;;;52.80;21.23;;;;;;;0.70;100.00;101783.63;5071246;28;20058;-69
2022/12/04 11:08:43;;;;;;;53.20;22.08;;;;;;;0.69;100.00;101776.66;5071389;28;20038;-70
2022/12/04 11:11:14;;;;;;;56.58;19.55;;;;;;;0.75;100.00;101771.91;5069073;28;20155;-70
2022/12/04 11:13:40;;;;;;;48.17;19.58;;;;;;;0.75;100.00;101785.75;5069522;28;20034;-72
2022/12/04 11:16:06;;;;;;;51.28;19.17;;;;;;;0.76;100.00;101784.06;5057918;28;20024;-71
2022/12/04 11:18:45;;;;;;;53.25;20.08;;;;;;;0.74;100.00;101775.28;5060841;28;20037;-70
2022/12/04 11:21:24;;;;;;;45.55;18.45;;;;;;;0.72;100.00;101774.28;5070008;28;20028;-72
2022/12/04 11:23:51;;;;;;;42.95;18.98;;;;;;;0.66;100.00;101773.06;5064541;28;20159;-69
2022/12/04 11:26:41;;;;;;;48.92;20.17;;;;;;;0.69;100.00;101766.28;5071335;28;20024;-68
2022/12/04 11:29:11;;;;;;;51.95;19.80;;;;;;;0.72;100.00;101759.66;5060310;28;20017;-68